Main page
METAR-TAF:

METAR-TAF

Airports :

Savannakhet Airport

Savannakhet, Laos

latitude: 16-33-24N, longitude: 104-45-34E, elevation: 155 m

Current weather observation

The report was made 5 hours and 57 minutes ago, at 13:00 UTC
Wind 6 kt from the East
Temperature 18°C
Humidity 49%
Pressure 1022 hPa
Visibility: 2000 m
Few clouds at a height of 4000 ft
mist

METAR: VLSK 061300Z 09006KT 2000 BR FEW040 18/07 Q1022 NOSIG

Time: 01:57 (18:57 UTC)

Forecast

The report was made 1 hour and 57 minutes ago, at 17:00 UTC
Forecast valid from 06 at 18 UTC to 07 at 18 UTC
Wind 6 kt from the East/Northeast
Visibility: 8000 m
Few clouds at a height of 2000 ft
Few clouds at a height of 10000 ft

TAF: VLSK 061700Z 0618/0718 06006KT 8000 FEW020 FEW100

Weather observations and forecasts of more than 4000 airports (METAR and TAF reports).

The available stations are represented by yellow and red dots on the map.

Hover mouse over dot to see the name of the station.

Then click to see weather observations and forecasts.

To change the map : click on the green buttons with a black cross to zoom in, on the green button with a dash to zoom out, or on the green arrows for adjacent maps.


METAR-TAF: